createdAt,value
2023-05-15T14:25:25.908Z,600.00
2023-05-15T14:26:25.695Z,600.00
2023-05-15T14:27:25.710Z,600.00
2023-05-15T14:28:25.661Z,600.00
2023-05-15T14:29:25.663Z,600.00
2023-05-15T14:30:25.814Z,460.00
2023-05-15T14:31:25.653Z,400.00
2023-05-15T14:32:25.594Z,400.00
2023-05-15T14:33:25.589Z,400.00
2023-05-15T14:34:25.593Z,400.00
2023-05-15T14:35:25.608Z,400.00
2023-05-15T14:36:25.573Z,400.00
2023-05-15T14:37:25.571Z,400.00
2023-05-15T14:38:25.580Z,400.00
2023-05-15T14:39:25.592Z,400.00
2023-05-15T14:40:25.921Z,400.00
2023-05-15T14:41:25.542Z,400.00
2023-05-15T14:42:25.538Z,400.00
2023-05-15T14:43:25.523Z,400.00
2023-05-15T14:44:25.524Z,400.00
2023-05-15T14:45:25.739Z,400.00
2023-05-15T14:46:25.575Z,400.00
2023-05-15T14:47:25.535Z,400.00
2023-05-15T14:48:25.508Z,400.00
2023-05-15T14:49:25.514Z,400.00
2023-05-15T14:50:25.745Z,400.00
2023-05-15T14:51:25.504Z,400.00
2023-05-15T14:52:25.493Z,400.00
2023-05-15T14:53:25.476Z,400.00
2023-05-15T14:54:25.475Z,400.00
2023-05-15T14:55:25.476Z,400.00
2023-05-15T14:56:25.433Z,400.00
2023-05-15T14:57:25.422Z,400.00
2023-05-15T14:58:25.431Z,400.00
2023-05-15T14:59:25.432Z,400.00
2023-05-15T15:00:25.736Z,400.00
2023-05-15T15:01:25.469Z,400.00
2023-05-15T15:02:25.485Z,400.00
2023-05-15T15:03:27.878Z,400.00
2023-05-15T15:04:25.398Z,400.00
2023-05-15T15:05:25.377Z,400.00
2023-05-15T15:06:25.394Z,400.00
2023-05-15T15:07:25.355Z,400.00
2023-05-15T15:08:25.398Z,400.00
2023-05-15T15:09:26.368Z,400.00
2023-05-15T15:10:25.576Z,400.00
2023-05-15T15:11:25.355Z,400.00
2023-05-15T15:12:25.328Z,400.00
2023-05-15T15:13:25.324Z,400.00
2023-05-15T15:14:25.317Z,400.00
2023-05-15T15:15:25.283Z,400.00
2023-05-15T15:16:25.338Z,400.00
2023-05-15T15:17:25.310Z,400.00
2023-05-15T15:18:25.306Z,400.00
2023-05-15T15:19:25.401Z,400.00
2023-05-15T15:20:25.539Z,410.00
2023-05-15T15:21:25.256Z,444.00
2023-05-15T15:22:25.272Z,467.00
2023-05-15T15:23:25.256Z,497.00
2023-05-15T15:24:25.251Z,525.00
2023-05-15T15:25:25.271Z,559.00
2023-05-15T15:26:25.237Z,594.00
2023-05-15T15:27:25.224Z,603.00
2023-05-15T15:28:25.216Z,600.00
2023-05-15T15:29:25.225Z,602.00
2023-05-15T15:30:25.389Z,603.00
2023-05-15T15:31:25.247Z,607.00
2023-05-15T15:32:25.227Z,607.00
2023-05-15T15:33:25.213Z,604.00
2023-05-15T15:34:25.172Z,601.00
2023-05-15T15:35:25.187Z,601.00
2023-05-15T15:36:25.167Z,606.00
2023-05-15T15:37:25.150Z,601.00
2023-05-15T15:38:25.169Z,602.00
2023-05-15T15:39:25.131Z,600.00
2023-05-15T15:40:25.301Z,605.00
2023-05-15T15:41:25.136Z,602.00
2023-05-15T15:42:25.094Z,601.00
2023-05-15T15:43:25.272Z,600.00
2023-05-15T15:44:25.116Z,602.00
2023-05-15T15:45:25.165Z,600.00
2023-05-15T15:46:25.161Z,600.00
2023-05-15T15:47:25.089Z,606.00
2023-05-15T15:48:25.082Z,600.00
2023-05-15T15:49:25.110Z,601.00
2023-05-15T15:50:25.424Z,602.00
2023-05-15T15:51:25.139Z,601.00
2023-05-15T15:52:25.181Z,608.00
2023-05-15T15:53:25.177Z,605.00
2023-05-15T15:54:25.215Z,600.00
2023-05-15T15:55:25.235Z,601.00
2023-05-15T15:56:25.242Z,600.00
2023-05-15T15:57:25.482Z,601.00
2023-05-15T15:58:25.264Z,600.00
2023-05-15T15:59:25.315Z,601.00
2023-05-15T16:00:25.474Z,602.00
2023-05-15T16:01:25.502Z,602.00
2023-05-15T16:02:25.424Z,603.00
2023-05-15T16:03:25.452Z,604.00
2023-05-15T16:04:25.445Z,607.00
2023-05-15T16:05:25.433Z,607.00
2023-05-15T16:06:25.499Z,609.00
2023-05-15T16:07:25.504Z,607.00
2023-05-15T16:08:25.539Z,608.00
2023-05-15T16:09:25.571Z,600.00
2023-05-15T16:10:25.578Z,600.00
2023-05-15T16:11:25.587Z,606.00
2023-05-15T16:12:25.636Z,612.00
2023-05-15T16:13:25.682Z,621.00
2023-05-15T16:14:25.701Z,616.00
2023-05-15T16:15:25.721Z,614.00
2023-05-15T16:16:25.955Z,619.00
2023-05-15T16:17:26.032Z,622.00
2023-05-15T16:18:25.854Z,612.00
2023-05-15T16:19:25.887Z,617.00
2023-05-15T16:20:26.283Z,615.00
2023-05-15T16:21:25.937Z,609.00
2023-05-15T16:22:25.977Z,614.00
2023-05-15T16:23:26.008Z,610.00
2023-05-15T16:24:26.047Z,611.00
2023-05-15T16:25:26.059Z,613.00
2023-05-15T16:26:26.111Z,612.00
2023-05-15T16:27:26.105Z,605.00
2023-05-15T16:28:26.157Z,602.00
2023-05-15T16:29:26.200Z,601.00
2023-05-15T16:30:33.676Z,603.00
2023-05-15T16:31:27.235Z,603.00
2023-05-15T16:32:26.225Z,596.00
2023-05-15T16:33:26.184Z,597.00
2023-05-15T16:34:26.194Z,586.00
2023-05-15T16:35:26.187Z,592.00
2023-05-15T16:36:26.164Z,597.00
2023-05-15T16:37:26.151Z,600.00
2023-05-15T16:38:26.157Z,601.00
2023-05-15T16:39:26.116Z,602.00
2023-05-15T16:40:26.405Z,604.00
2023-05-15T16:41:26.122Z,600.00
2023-05-15T16:42:26.124Z,604.00
2023-05-15T16:43:26.101Z,608.00
2023-05-15T16:44:26.090Z,607.00
2023-05-15T16:45:27.922Z,601.00
2023-05-15T16:46:26.352Z,602.00
2023-05-15T16:47:26.186Z,602.00
2023-05-15T16:48:26.205Z,611.00
2023-05-15T16:49:26.244Z,610.00
2023-05-15T16:50:26.526Z,610.00
2023-05-15T16:51:26.319Z,615.00
2023-05-15T16:52:26.348Z,614.00
2023-05-15T16:53:26.438Z,622.00
2023-05-15T16:54:26.392Z,628.00
2023-05-15T16:55:26.460Z,630.00
2023-05-15T16:56:26.462Z,630.00
2023-05-15T16:57:26.545Z,636.00
2023-05-15T16:58:26.506Z,635.00
2023-05-15T16:59:26.581Z,636.00
2023-05-15T17:00:27.081Z,636.00
2023-05-15T17:01:26.667Z,642.00
2023-05-15T17:02:26.810Z,647.00
2023-05-15T17:03:26.783Z,646.00
2023-05-15T17:04:26.735Z,659.00
2023-05-15T17:05:26.771Z,655.00
2023-05-15T17:06:26.809Z,665.00
2023-05-15T17:07:26.840Z,664.00
2023-05-15T17:08:26.860Z,673.00
2023-05-15T17:09:26.896Z,688.00
2023-05-15T17:10:27.205Z,693.00
2023-05-15T17:11:26.972Z,707.00
2023-05-15T17:12:27.004Z,691.00
2023-05-15T17:13:27.825Z,693.00
2023-05-15T17:14:27.089Z,695.00
2023-05-15T17:15:27.334Z,702.00
2023-05-15T17:16:27.149Z,673.00
2023-05-15T17:17:27.237Z,684.00
2023-05-15T17:18:27.217Z,681.00
2023-05-15T17:19:27.250Z,692.00
2023-05-15T17:20:27.262Z,654.00
2023-05-15T17:21:27.277Z,621.00
2023-05-15T17:22:27.292Z,611.00
2023-05-15T17:23:27.348Z,612.00
2023-05-15T17:24:38.529Z,609.00
2023-05-15T17:25:28.488Z,609.00
2023-05-15T17:26:27.388Z,606.00
2023-05-15T17:27:27.366Z,585.00
2023-05-15T17:28:27.342Z,570.00
2023-05-15T17:29:27.366Z,556.00
2023-05-15T17:30:27.425Z,580.00
2023-05-15T17:31:27.359Z,600.00
2023-05-15T17:32:27.458Z,600.00
2023-05-15T17:33:27.342Z,602.00
2023-05-15T17:34:27.323Z,603.00
2023-05-15T17:35:28.356Z,600.00
2023-05-15T17:36:27.492Z,603.00
2023-05-15T17:37:27.542Z,603.00
2023-05-15T17:38:27.562Z,602.00
2023-05-15T17:39:27.628Z,598.00
2023-05-15T17:40:27.643Z,599.00
2023-05-15T17:41:27.725Z,601.00
2023-05-15T17:42:27.737Z,601.00
2023-05-15T17:43:27.830Z,600.00
2023-05-15T17:44:27.852Z,600.00
2023-05-15T17:45:28.082Z,598.00
2023-05-15T17:46:27.979Z,600.00
2023-05-15T17:47:28.063Z,602.00
2023-05-15T17:48:28.076Z,600.00
2023-05-15T17:49:28.123Z,600.00
2023-05-15T17:50:28.199Z,600.00
2023-05-15T17:51:28.200Z,600.00
2023-05-15T17:52:28.269Z,602.00
2023-05-15T17:53:28.357Z,598.00
2023-05-15T17:54:28.376Z,600.00
2023-05-15T17:55:28.540Z,600.00
2023-05-15T17:56:28.472Z,600.00
2023-05-15T17:57:28.551Z,600.00
2023-05-15T17:58:28.613Z,607.00
2023-05-15T17:59:28.725Z,603.00
2023-05-15T18:00:28.749Z,600.00
2023-05-15T18:01:28.824Z,600.00
2023-05-15T18:02:28.886Z,603.00
2023-05-15T18:03:29.004Z,600.00
2023-05-15T18:04:28.950Z,604.00
2023-05-15T18:05:29.289Z,607.00
2023-05-15T18:06:29.115Z,603.00
2023-05-15T18:07:29.156Z,604.00
2023-05-15T18:08:29.219Z,600.00
2023-05-15T18:09:29.250Z,601.00
2023-05-15T18:10:29.358Z,601.00
2023-05-15T18:11:29.384Z,612.00
2023-05-15T18:12:29.436Z,606.00
2023-05-15T18:13:29.479Z,604.00
2023-05-15T18:14:29.560Z,605.00
2023-05-15T18:15:29.588Z,611.00
2023-05-15T18:16:29.717Z,607.00
2023-05-15T18:17:29.681Z,610.00
2023-05-15T18:18:29.755Z,613.00
2023-05-15T18:19:29.813Z,611.00
2023-05-15T18:20:29.886Z,602.00
2023-05-15T18:21:29.929Z,600.00
2023-05-15T18:22:29.996Z,600.00
2023-05-15T18:23:30.081Z,600.00
2023-05-15T18:24:30.125Z,606.00
2023-05-15T18:25:30.157Z,602.00
2023-05-15T18:26:30.236Z,604.00
2023-05-15T18:27:30.294Z,610.00
2023-05-15T18:28:30.290Z,612.00
2023-05-15T18:29:30.308Z,617.00
2023-05-15T18:30:30.397Z,619.00
2023-05-15T18:31:30.388Z,617.00
2023-05-15T18:32:30.444Z,623.00
2023-05-15T18:33:30.452Z,627.00
2023-05-15T18:34:30.450Z,636.00
2023-05-15T18:35:30.498Z,635.00
2023-05-15T18:36:30.502Z,639.00
2023-05-15T18:37:30.514Z,643.00
2023-05-15T18:38:31.434Z,649.00
2023-05-15T18:39:30.462Z,650.00
2023-05-15T18:40:30.525Z,657.00
2023-05-15T18:41:30.704Z,661.00
2023-05-15T18:42:30.531Z,661.00
2023-05-15T18:43:30.525Z,661.00
2023-05-15T18:44:30.526Z,666.00
2023-05-15T18:45:30.555Z,668.00
2023-05-15T18:46:30.556Z,677.00
2023-05-15T18:47:30.523Z,676.00
2023-05-15T18:48:30.536Z,685.00
2023-05-15T18:49:30.544Z,686.00
2023-05-15T18:50:30.545Z,698.00
2023-05-15T18:51:30.531Z,701.00
2023-05-15T18:52:30.513Z,714.00
2023-05-15T18:53:30.520Z,721.00
2023-05-15T18:54:30.502Z,729.00
2023-05-15T18:55:30.518Z,729.00
2023-05-15T18:56:30.494Z,740.00
2023-05-15T18:57:30.507Z,742.00
2023-05-15T18:58:30.512Z,742.00
2023-05-15T18:59:30.495Z,749.00
2023-05-15T19:01:30.523Z,753.00
2023-05-15T19:02:30.545Z,749.00
2023-05-15T19:03:30.528Z,734.00
2023-05-15T19:04:30.500Z,739.00
2023-05-15T19:05:30.439Z,737.00
2023-05-15T19:06:30.462Z,750.00
2023-05-15T19:07:30.437Z,762.00
2023-05-15T19:08:30.436Z,765.00
2023-05-15T19:09:30.441Z,768.00
2023-05-15T19:10:30.439Z,767.00
2023-05-15T19:11:30.398Z,757.00
2023-05-15T19:12:30.393Z,765.00
2023-05-15T19:13:30.403Z,763.00
2023-05-15T19:14:30.469Z,765.00
2023-05-15T19:15:30.381Z,764.00
2023-05-15T19:16:30.388Z,777.00
2023-05-15T19:18:43.732Z,600.00
2023-05-15T19:19:43.618Z,600.00
2023-05-15T19:20:43.601Z,600.00
2023-05-15T19:21:43.572Z,600.00
2023-05-15T19:22:43.586Z,600.00
2023-05-15T19:23:43.573Z,603.00
2023-05-15T19:24:43.561Z,601.00
2023-05-15T19:25:43.566Z,604.00
2023-05-15T19:26:43.527Z,602.00
2023-05-15T19:27:43.529Z,603.00
2023-05-15T19:28:43.525Z,603.00
2023-05-15T19:29:43.541Z,602.00
2023-05-15T19:30:43.519Z,603.00
2023-05-15T19:31:43.517Z,605.00
2023-05-15T19:32:43.614Z,605.00
2023-05-15T19:33:43.493Z,605.00
2023-05-15T19:34:43.486Z,605.00
2023-05-15T19:35:43.473Z,608.00
2023-05-15T19:36:43.458Z,610.00
2023-05-15T19:37:43.490Z,607.00
2023-05-15T19:38:43.443Z,611.00
2023-05-15T19:39:43.437Z,613.00
2023-05-15T19:40:43.473Z,612.00
2023-05-15T19:41:43.455Z,612.00
2023-05-15T19:42:43.446Z,615.00
2023-05-15T19:43:43.421Z,617.00
2023-05-15T19:44:43.435Z,616.00
2023-05-15T19:45:43.483Z,618.00
2023-05-15T19:46:43.427Z,617.00
2023-05-15T19:47:43.457Z,617.00
2023-05-15T19:48:43.412Z,614.00
2023-05-15T19:49:43.395Z,614.00
2023-05-15T19:50:43.361Z,617.00
2023-05-15T19:51:43.375Z,616.00
2023-05-15T19:52:45.199Z,616.00
2023-05-15T19:53:43.339Z,616.00
2023-05-15T19:54:43.353Z,616.00
2023-05-15T19:55:43.358Z,616.00
2023-05-15T19:56:43.336Z,615.00
2023-05-15T19:57:43.321Z,612.00
2023-05-15T19:58:43.315Z,613.00
2023-05-15T19:59:43.308Z,611.00
2023-05-15T20:00:43.314Z,610.00
2023-05-15T20:01:43.371Z,615.00
2023-05-15T20:02:43.319Z,618.00
2023-05-15T20:03:43.879Z,619.00
2023-05-15T20:04:43.269Z,614.00
2023-05-15T20:05:43.304Z,608.00
2023-05-15T20:06:43.252Z,610.00
2023-05-15T20:07:43.289Z,610.00
2023-05-15T20:08:43.339Z,610.00
2023-05-15T20:09:43.261Z,609.00
2023-05-15T20:10:43.234Z,609.00
2023-05-15T20:11:43.237Z,610.00
2023-05-15T20:12:43.209Z,610.00
2023-05-15T20:13:43.241Z,605.00
2023-05-15T20:14:43.193Z,605.00
2023-05-15T20:15:43.233Z,601.00
2023-05-15T20:16:43.312Z,601.00
2023-05-15T20:17:43.276Z,602.00
2023-05-15T20:18:43.310Z,602.00
2023-05-15T20:19:43.244Z,603.00
2023-05-15T20:20:43.306Z,600.00
2023-05-15T20:21:43.290Z,600.00
2023-05-15T20:22:43.297Z,601.00
2023-05-15T20:23:43.323Z,602.00
2023-05-15T20:24:43.321Z,600.00
2023-05-15T20:25:43.353Z,604.00
2023-05-15T20:26:43.363Z,600.00
2023-05-15T20:27:43.377Z,602.00
2023-05-15T20:28:45.003Z,602.00
2023-05-15T20:29:43.391Z,610.00
2023-05-15T20:30:43.409Z,605.00
2023-05-15T20:31:43.449Z,604.00
2023-05-15T20:32:43.532Z,604.00
2023-05-15T20:33:43.501Z,603.00
2023-05-15T20:34:43.457Z,605.00
2023-05-15T20:35:43.573Z,602.00
2023-05-15T20:36:43.513Z,600.00
2023-05-15T20:37:43.526Z,600.00
2023-05-15T20:38:43.538Z,603.00
2023-05-15T20:39:43.598Z,602.00
2023-05-15T20:40:43.610Z,603.00
2023-05-15T20:41:43.618Z,601.00
2023-05-15T20:42:43.639Z,602.00
2023-05-15T20:43:43.665Z,600.00
2023-05-15T20:44:43.704Z,602.00
2023-05-15T20:45:43.706Z,603.00
2023-05-15T20:46:43.732Z,601.00
2023-05-15T20:47:43.794Z,602.00
2023-05-15T20:48:43.792Z,607.00
2023-05-15T20:49:43.789Z,606.00
2023-05-15T20:50:43.863Z,611.00
2023-05-15T20:51:43.871Z,610.00
2023-05-15T20:52:43.930Z,610.00
2023-05-15T20:53:43.941Z,600.00
2023-05-15T20:54:43.962Z,604.00
2023-05-15T20:55:43.997Z,600.00
2023-05-15T20:56:44.031Z,600.00
2023-05-15T20:57:44.054Z,603.00
2023-05-15T20:58:44.068Z,603.00
2023-05-15T20:59:44.112Z,604.00
2023-05-15T21:00:44.165Z,606.00
2023-05-15T21:01:44.257Z,606.00
2023-05-15T21:02:44.226Z,605.00
2023-05-15T21:03:44.278Z,607.00
2023-05-15T21:04:44.268Z,608.00
2023-05-15T21:05:44.296Z,610.00
2023-05-15T21:06:44.333Z,608.00
2023-05-15T21:07:44.369Z,610.00
2023-05-15T21:08:44.390Z,612.00
2023-05-15T21:09:44.432Z,612.00
2023-05-15T21:10:44.472Z,615.00
2023-05-15T21:11:44.487Z,614.00
2023-05-15T21:12:44.535Z,619.00
2023-05-15T21:13:44.565Z,618.00
2023-05-15T21:14:44.593Z,618.00
2023-05-15T21:15:44.670Z,618.00
2023-05-15T21:16:44.757Z,617.00
2023-05-15T21:17:44.784Z,624.00
2023-05-15T21:18:44.798Z,622.00
2023-05-15T21:19:44.817Z,627.00
2023-05-15T21:20:44.870Z,627.00
2023-05-15T21:21:44.907Z,631.00
2023-05-15T21:22:44.913Z,629.00
2023-05-15T21:23:44.987Z,627.00
2023-05-15T21:24:45.046Z,630.00
2023-05-15T21:25:45.084Z,633.00
2023-05-15T21:26:45.098Z,630.00
2023-05-15T21:27:45.175Z,632.00
2023-05-15T21:28:45.210Z,630.00
2023-05-15T21:29:45.247Z,626.00
2023-05-15T21:30:45.286Z,630.00
2023-05-15T21:31:45.324Z,630.00
2023-05-15T21:32:45.416Z,627.00
2023-05-15T21:33:45.410Z,624.00
2023-05-15T21:34:45.470Z,625.00
2023-05-15T21:35:45.510Z,623.00
2023-05-15T21:36:45.591Z,623.00
2023-05-15T21:37:45.576Z,619.00
2023-05-15T21:38:45.663Z,618.00
2023-05-15T21:39:45.661Z,618.00
2023-05-15T21:40:45.724Z,620.00
2023-05-15T21:41:45.740Z,619.00
2023-05-15T21:42:45.818Z,621.00
2023-05-15T21:43:45.814Z,624.00
2023-05-15T21:44:45.912Z,624.00
2023-05-15T21:45:45.951Z,625.00
2023-05-15T21:46:46.110Z,627.00
2023-05-15T21:47:46.102Z,628.00
2023-05-15T21:48:46.097Z,630.00
2023-05-15T21:49:46.156Z,628.00
2023-05-15T21:50:46.203Z,633.00
2023-05-15T21:51:46.235Z,632.00
2023-05-15T21:52:46.299Z,630.00
2023-05-15T21:53:46.312Z,637.00
2023-05-15T21:54:46.364Z,636.00
2023-05-15T21:55:46.443Z,635.00
2023-05-15T21:56:46.491Z,641.00
2023-05-15T21:57:46.505Z,643.00
2023-05-15T21:58:46.578Z,646.00
2023-05-15T21:59:46.632Z,644.00
2023-05-15T22:00:46.688Z,649.00
2023-05-15T22:01:46.808Z,653.00
2023-05-15T22:02:46.930Z,649.00
2023-05-15T22:03:46.932Z,650.00
2023-05-15T22:04:46.880Z,652.00
2023-05-15T22:05:46.898Z,652.00
2023-05-15T22:06:46.984Z,655.00
2023-05-15T22:07:47.018Z,652.00
2023-05-15T22:08:47.038Z,655.00
2023-05-15T22:09:47.127Z,655.00
2023-05-15T22:10:48.887Z,657.00
2023-05-15T22:11:47.212Z,655.00
2023-05-15T22:12:47.302Z,659.00
2023-05-15T22:13:47.332Z,656.00
2023-05-15T22:14:58.436Z,657.00
2023-05-15T22:15:48.363Z,657.00
2023-05-15T22:16:47.413Z,657.00
2023-05-15T22:17:47.410Z,653.00
2023-05-15T22:18:47.368Z,652.00
2023-05-15T22:19:47.484Z,648.00
2023-05-15T22:20:47.345Z,647.00
2023-05-15T22:21:47.326Z,647.00
2023-05-15T22:22:47.317Z,646.00
2023-05-15T22:23:47.344Z,641.00
2023-05-15T22:24:47.325Z,644.00
2023-05-15T22:25:47.336Z,638.00
2023-05-15T22:26:47.382Z,637.00
2023-05-15T22:27:47.443Z,640.00
2023-05-15T22:28:47.521Z,637.00
2023-05-15T22:29:47.554Z,637.00
2023-05-15T22:30:47.597Z,636.00
2023-05-15T22:31:47.684Z,635.00
2023-05-15T22:32:47.788Z,632.00
2023-05-15T22:33:47.747Z,636.00
2023-05-15T22:34:47.850Z,632.00
2023-05-15T22:35:47.882Z,627.00
2023-05-15T22:36:47.942Z,629.00
2023-05-15T22:37:47.968Z,629.00
2023-05-15T22:38:48.035Z,628.00
2023-05-15T22:39:48.107Z,630.00
2023-05-15T22:40:48.169Z,627.00
2023-05-15T22:41:48.208Z,629.00
2023-05-15T22:42:48.221Z,628.00
2023-05-15T22:43:48.272Z,628.00
2023-05-15T22:44:48.356Z,627.00
2023-05-15T22:45:48.446Z,624.00
2023-05-15T22:46:48.474Z,628.00
2023-05-15T22:47:48.580Z,628.00
2023-05-15T22:48:48.528Z,628.00
2023-05-15T22:49:48.607Z,632.00
2023-05-15T22:50:48.678Z,633.00
2023-05-15T22:51:48.707Z,639.00
2023-05-15T22:52:48.808Z,639.00
2023-05-15T22:53:48.828Z,642.00
2023-05-15T22:54:48.936Z,640.00
2023-05-15T22:55:48.947Z,644.00
2023-05-15T22:56:49.012Z,651.00
2023-05-15T22:57:49.070Z,648.00
2023-05-15T22:58:49.116Z,648.00
2023-05-15T22:59:49.193Z,649.00
2023-05-15T23:00:49.284Z,645.00
2023-05-15T23:01:49.397Z,647.00
2023-05-15T23:02:49.356Z,647.00
2023-05-15T23:03:49.469Z,644.00
2023-05-15T23:04:49.479Z,643.00
2023-05-15T23:05:49.540Z,644.00
2023-05-15T23:06:49.595Z,645.00
2023-05-15T23:07:49.627Z,641.00
2023-05-15T23:08:49.692Z,642.00
2023-05-15T23:09:49.770Z,642.00
2023-05-15T23:10:49.811Z,643.00
2023-05-15T23:11:49.894Z,643.00
2023-05-15T23:12:49.908Z,638.00
2023-05-15T23:13:50.022Z,641.00
2023-05-15T23:14:50.095Z,641.00
2023-05-15T23:15:50.147Z,643.00
2023-05-15T23:16:50.225Z,641.00
2023-05-15T23:17:50.297Z,643.00
2023-05-15T23:18:50.361Z,642.00
2023-05-15T23:19:50.374Z,641.00
2023-05-15T23:20:50.433Z,643.00
2023-05-15T23:21:50.449Z,645.00
2023-05-15T23:22:50.513Z,645.00
2023-05-15T23:23:50.612Z,643.00
2023-05-15T23:24:50.686Z,647.00
2023-05-15T23:25:50.743Z,646.00
2023-05-15T23:26:50.795Z,649.00
2023-05-15T23:27:50.915Z,653.00
2023-05-15T23:28:50.917Z,647.00
2023-05-15T23:29:50.989Z,656.00
2023-05-15T23:30:51.092Z,658.00
2023-05-15T23:31:51.206Z,655.00
2023-05-15T23:32:51.200Z,655.00
2023-05-15T23:33:51.252Z,653.00
2023-05-15T23:34:51.302Z,656.00
2023-05-15T23:35:51.341Z,655.00
2023-05-15T23:36:51.389Z,654.00
2023-05-15T23:37:51.457Z,660.00
2023-05-15T23:38:51.508Z,659.00
2023-05-15T23:39:51.573Z,658.00
2023-05-15T23:40:51.653Z,658.00
2023-05-15T23:41:51.720Z,657.00
2023-05-15T23:42:51.757Z,655.00
2023-05-15T23:43:51.821Z,659.00
2023-05-15T23:44:51.934Z,658.00
2023-05-15T23:45:51.941Z,660.00
2023-05-15T23:46:52.138Z,657.00
2023-05-15T23:47:52.093Z,658.00
2023-05-15T23:48:52.120Z,659.00
2023-05-15T23:49:52.207Z,662.00
2023-05-15T23:50:52.272Z,661.00
2023-05-15T23:51:52.314Z,662.00
2023-05-15T23:52:52.360Z,659.00
2023-05-15T23:53:52.448Z,657.00
2023-05-15T23:54:52.495Z,655.00
2023-05-15T23:55:52.640Z,654.00
2023-05-15T23:56:52.601Z,656.00
2023-05-15T23:57:52.676Z,652.00
2023-05-15T23:58:52.728Z,650.00
2023-05-15T23:59:52.804Z,647.00
